createdAt,value
2018-06-24T00:01:14.571Z,99.90
2018-06-24T00:03:47.334Z,99.90
2018-06-24T00:06:19.805Z,99.90
2018-06-24T00:08:52.471Z,99.90
2018-06-24T00:11:24.948Z,99.90
2018-06-24T00:13:57.550Z,99.90
2018-06-24T00:16:29.890Z,99.90
2018-06-24T00:19:02.297Z,99.90
2018-06-24T00:21:34.860Z,99.90
2018-06-24T00:24:07.283Z,99.90
2018-06-24T00:26:40.015Z,99.90
2018-06-24T00:29:12.536Z,99.90
2018-06-24T00:31:45.126Z,99.90
2018-06-24T00:34:17.644Z,99.90
2018-06-24T00:36:50.161Z,99.90
2018-06-24T00:39:22.647Z,99.90
2018-06-24T00:41:55.112Z,99.90
2018-06-24T00:44:27.619Z,99.90
2018-06-24T00:47:00.096Z,99.90
2018-06-24T00:49:32.585Z,99.90
2018-06-24T00:52:05.186Z,99.90
2018-06-24T00:54:37.757Z,99.90
2018-06-24T00:57:10.313Z,99.90
2018-06-24T00:59:54.307Z,99.90
2018-06-24T01:02:26.762Z,99.90
2018-06-24T01:04:59.203Z,99.90
2018-06-24T01:07:31.725Z,99.90
2018-06-24T01:10:04.249Z,99.90
2018-06-24T01:12:36.826Z,99.90
2018-06-24T01:15:09.453Z,99.90
2018-06-24T01:17:41.945Z,99.90
2018-06-24T01:20:14.443Z,99.90
2018-06-24T01:22:47.117Z,99.90
2018-06-24T01:25:19.510Z,99.90
2018-06-24T01:27:51.956Z,99.90
2018-06-24T01:30:24.461Z,99.90
2018-06-24T01:32:57.193Z,99.90
2018-06-24T01:35:29.667Z,99.90
2018-06-24T01:38:02.173Z,99.90
2018-06-24T01:40:34.638Z,99.90
2018-06-24T01:43:07.188Z,99.90
2018-06-24T01:45:39.662Z,99.90
2018-06-24T01:48:12.060Z,99.90
2018-06-24T01:50:44.482Z,99.90
2018-06-24T01:53:17.009Z,99.90
2018-06-24T01:55:49.447Z,99.90
2018-06-24T01:58:21.819Z,99.90
2018-06-24T02:00:54.220Z,99.90
2018-06-24T02:03:26.804Z,99.90
2018-06-24T02:05:59.371Z,99.90
2018-06-24T02:08:31.839Z,99.90
2018-06-24T02:11:04.240Z,99.90
2018-06-24T02:13:37.503Z,99.90
2018-06-24T02:16:09.977Z,99.90
2018-06-24T02:18:42.500Z,99.90
2018-06-24T02:21:14.953Z,99.90
2018-06-24T02:23:47.385Z,99.90
2018-06-24T02:26:19.774Z,99.90
2018-06-24T02:28:52.862Z,99.90
2018-06-24T02:31:25.544Z,99.90
2018-06-24T02:33:58.073Z,99.90
2018-06-24T02:36:30.975Z,99.90
2018-06-24T02:39:05.451Z,99.90
2018-06-24T02:41:37.878Z,99.90
2018-06-24T02:44:10.543Z,99.90
2018-06-24T02:46:42.979Z,99.90
2018-06-24T02:49:15.497Z,99.90
2018-06-24T02:51:47.894Z,99.90
2018-06-24T02:54:20.538Z,99.90
2018-06-24T02:56:52.991Z,99.90
2018-06-24T02:59:25.458Z,99.90
2018-06-24T03:01:57.910Z,99.90
2018-06-24T03:04:30.404Z,99.90
2018-06-24T03:07:02.859Z,99.90
2018-06-24T03:09:35.306Z,99.90
2018-06-24T03:12:07.807Z,99.90
2018-06-24T03:14:40.346Z,99.90
2018-06-24T03:17:13.208Z,99.90
2018-06-24T03:19:45.641Z,99.90
2018-06-24T03:22:18.181Z,99.90
2018-06-24T03:24:50.664Z,99.90
2018-06-24T03:27:23.090Z,99.90
2018-06-24T03:29:55.515Z,99.90
2018-06-24T03:32:28.226Z,99.90
2018-06-24T03:35:00.665Z,99.90
2018-06-24T03:37:33.153Z,99.90
2018-06-24T03:40:05.777Z,99.90
2018-06-24T03:42:38.246Z,99.90
2018-06-24T03:45:10.658Z,99.90
2018-06-24T03:47:43.122Z,99.90
2018-06-24T03:50:15.546Z,99.90
2018-06-24T03:52:48.012Z,99.90
2018-06-24T03:55:20.429Z,99.90
2018-06-24T03:57:52.891Z,99.90
2018-06-24T04:00:25.359Z,99.90
2018-06-24T04:02:57.987Z,99.90
2018-06-24T04:05:30.442Z,99.90
2018-06-24T04:08:02.905Z,99.90
2018-06-24T04:10:35.359Z,99.90
2018-06-24T04:13:07.888Z,99.90
2018-06-24T04:15:40.273Z,99.90
2018-06-24T04:18:12.773Z,99.90
2018-06-24T04:20:45.225Z,99.90
2018-06-24T04:23:17.667Z,99.90
2018-06-24T04:25:50.179Z,99.90
2018-06-24T04:28:22.824Z,99.90
2018-06-24T04:30:55.461Z,99.90
2018-06-24T04:33:27.893Z,99.90
2018-06-24T04:36:00.349Z,99.90
2018-06-24T04:38:34.213Z,99.90
2018-06-24T04:41:06.878Z,99.90
2018-06-24T04:43:39.319Z,99.90
2018-06-24T04:46:11.764Z,99.90
2018-06-24T04:48:44.228Z,99.90
2018-06-24T04:51:16.666Z,99.90
2018-06-24T04:53:49.111Z,99.90
2018-06-24T04:56:21.565Z,99.90
2018-06-24T04:58:54.288Z,99.90
2018-06-24T05:01:26.742Z,99.90
2018-06-24T05:03:59.181Z,99.90
2018-06-24T05:06:31.637Z,99.90
2018-06-24T05:09:06.433Z,99.90
2018-06-24T05:11:39.043Z,99.90
2018-06-24T05:14:11.499Z,99.90
2018-06-24T05:16:43.896Z,99.90
2018-06-24T05:19:17.354Z,99.90
2018-06-24T05:21:49.832Z,99.90
2018-06-24T05:24:22.622Z,99.90
2018-06-24T05:26:55.038Z,99.90
2018-06-24T05:29:27.474Z,99.90
2018-06-24T05:31:59.937Z,99.90
2018-06-24T05:34:32.329Z,99.90
2018-06-24T05:37:04.779Z,99.90
2018-06-24T05:39:37.275Z,99.90
2018-06-24T05:42:09.857Z,99.90
2018-06-24T05:44:42.289Z,99.90
2018-06-24T05:47:15.106Z,99.90
2018-06-24T05:49:47.486Z,99.90
2018-06-24T05:52:19.946Z,99.90
2018-06-24T05:54:52.366Z,99.90
2018-06-24T05:57:24.825Z,99.90
2018-06-24T05:59:57.339Z,99.90
2018-06-24T06:02:30.018Z,99.90
2018-06-24T06:05:02.488Z,99.90
2018-06-24T06:07:34.940Z,99.90
2018-06-24T06:10:07.392Z,99.90
2018-06-24T06:12:39.873Z,99.90
2018-06-24T06:17:44.748Z,99.90
2018-06-24T06:20:17.287Z,99.90
2018-06-24T06:22:50.019Z,99.90
2018-06-24T06:25:22.426Z,99.90
2018-06-24T06:27:54.915Z,99.90
2018-06-24T06:30:27.392Z,99.90
2018-06-24T06:32:59.896Z,99.90
2018-06-24T06:35:32.283Z,99.90
2018-06-24T06:38:05.242Z,99.90
2018-06-24T06:40:37.725Z,99.90
2018-06-24T06:43:10.500Z,99.90
2018-06-24T06:45:43.123Z,99.90
2018-06-24T06:48:15.490Z,99.90
2018-06-24T06:50:47.902Z,99.90
2018-06-24T06:53:20.360Z,99.90
2018-06-24T06:55:52.782Z,99.90
2018-06-24T06:58:25.369Z,99.90
2018-06-24T07:01:01.175Z,99.90
2018-06-24T07:03:33.942Z,99.90
2018-06-24T07:06:06.399Z,99.90
2018-06-24T07:08:38.825Z,99.90
2018-06-24T07:11:11.206Z,99.90
2018-06-24T07:13:43.677Z,99.90
2018-06-24T07:16:16.199Z,99.90
2018-06-24T07:18:49.109Z,99.90
2018-06-24T07:21:21.631Z,99.90
2018-06-24T07:23:54.051Z,99.90
2018-06-24T07:26:26.552Z,99.90
2018-06-24T07:28:59.271Z,99.90
2018-06-24T07:31:31.701Z,99.90
2018-06-24T07:34:04.704Z,99.90
2018-06-24T07:36:37.214Z,99.90
2018-06-24T07:39:10.293Z,99.90
2018-06-24T07:41:43.402Z,99.90
2018-06-24T07:44:16.108Z,99.90
2018-06-24T07:46:48.510Z,99.90
2018-06-24T07:49:20.998Z,99.90
2018-06-24T07:51:53.526Z,99.90
2018-06-24T07:54:25.975Z,99.90
2018-06-24T07:59:31.113Z,99.90
2018-06-24T08:02:03.916Z,99.90
2018-06-24T08:04:36.461Z,99.90
2018-06-24T08:07:08.874Z,99.90
2018-06-24T08:09:41.691Z,99.90
2018-06-24T08:12:14.139Z,99.90
2018-06-24T08:14:46.618Z,99.90
2018-06-24T08:17:19.032Z,99.90
2018-06-24T08:19:51.560Z,99.90
2018-06-24T08:22:24.062Z,99.90
2018-06-24T08:24:56.545Z,99.90
2018-06-24T08:27:28.972Z,99.90
2018-06-24T08:30:01.440Z,99.90
2018-06-24T08:32:33.869Z,99.90
2018-06-24T08:35:06.506Z,99.90
2018-06-24T08:37:38.954Z,99.90
2018-06-24T08:40:11.448Z,99.90
2018-06-24T08:42:45.256Z,99.90
2018-06-24T08:45:17.685Z,99.90
2018-06-24T08:47:50.171Z,99.90
2018-06-24T08:50:22.600Z,99.90
2018-06-24T08:52:55.372Z,99.90
2018-06-24T08:55:27.853Z,99.90
2018-06-24T09:00:32.913Z,99.90
2018-06-24T09:03:06.150Z,99.90
2018-06-24T09:05:38.567Z,99.90
2018-06-24T09:08:11.091Z,99.90
2018-06-24T09:10:43.698Z,99.90
2018-06-24T09:13:16.154Z,99.90
2018-06-24T09:15:48.687Z,99.90
2018-06-24T09:18:21.063Z,99.90
2018-06-24T09:20:53.797Z,99.90
2018-06-24T09:23:26.278Z,99.90
2018-06-24T09:25:58.758Z,99.90
2018-06-24T09:28:31.519Z,99.90
2018-06-24T09:31:03.962Z,99.90
2018-06-24T09:33:36.488Z,99.90
2018-06-24T09:36:08.987Z,99.90
2018-06-24T09:38:41.471Z,99.90
2018-06-24T09:43:46.942Z,99.90
2018-06-24T09:46:19.372Z,99.90
2018-06-24T09:48:53.287Z,99.90
2018-06-24T09:51:25.759Z,99.90
2018-06-24T09:53:58.217Z,99.90
2018-06-24T09:56:30.684Z,99.90
2018-06-24T09:59:03.164Z,99.90
2018-06-24T10:01:35.887Z,99.90
2018-06-24T10:04:08.459Z,99.90
2018-06-24T10:06:40.930Z,99.90
2018-06-24T10:09:13.388Z,99.90
2018-06-24T10:11:46.224Z,99.90
2018-06-24T10:14:18.677Z,99.90
2018-06-24T10:16:51.191Z,99.90
2018-06-24T10:19:23.972Z,99.90
2018-06-24T10:21:56.489Z,99.90
2018-06-24T10:24:30.915Z,99.90
2018-06-24T10:27:03.368Z,99.90
2018-06-24T10:29:35.815Z,99.90
2018-06-24T10:32:08.260Z,99.90
2018-06-24T10:34:41.115Z,99.90
2018-06-24T10:37:13.823Z,99.90
2018-06-24T10:39:46.251Z,99.90
2018-06-24T10:42:18.723Z,99.90
2018-06-24T10:44:51.398Z,99.90
2018-06-24T10:47:23.949Z,99.90
2018-06-24T10:49:56.425Z,99.90
2018-06-24T10:52:29.076Z,99.90
2018-06-24T10:55:01.561Z,99.90
2018-06-24T10:57:34.107Z,99.90
2018-06-24T11:00:06.757Z,99.90
2018-06-24T11:02:39.164Z,99.90
2018-06-24T11:05:13.075Z,99.90
2018-06-24T11:07:45.497Z,99.90
2018-06-24T11:10:18.034Z,99.90
2018-06-24T11:12:50.529Z,99.90
2018-06-24T11:15:23.044Z,99.90
2018-06-24T11:17:55.678Z,99.90
2018-06-24T11:20:28.140Z,99.90
2018-06-24T11:23:00.678Z,99.90
2018-06-24T11:25:33.423Z,99.90
2018-06-24T11:28:06.127Z,99.90
2018-06-24T11:30:38.583Z,99.90
2018-06-24T11:33:11.059Z,99.90
2018-06-24T11:35:45.430Z,99.90
2018-06-24T11:38:18.179Z,99.90
2018-06-24T11:40:50.697Z,99.70
2018-06-24T11:43:23.362Z,99.80
2018-06-24T11:45:55.950Z,99.90
2018-06-24T11:48:28.613Z,99.70
2018-06-24T11:51:01.199Z,99.70
2018-06-24T11:53:33.699Z,99.80
2018-06-24T11:56:06.197Z,99.70
2018-06-24T11:58:38.636Z,99.70
2018-06-24T12:01:11.151Z,99.30
2018-06-24T12:03:43.662Z,99.90
2018-06-24T12:06:16.530Z,99.90
2018-06-24T12:08:49.082Z,99.90
2018-06-24T12:11:21.682Z,99.90
2018-06-24T12:13:54.137Z,99.30
2018-06-24T12:16:26.723Z,99.40
2018-06-24T12:18:59.315Z,99.10
2018-06-24T12:21:31.925Z,99.10
2018-06-24T12:24:04.713Z,98.00
2018-06-24T12:29:10.037Z,98.90
2018-06-24T12:31:42.493Z,98.20
2018-06-24T12:34:15.001Z,98.50
2018-06-24T12:36:47.808Z,98.40
2018-06-24T12:39:20.313Z,98.10
2018-06-24T12:41:52.725Z,98.60
2018-06-24T12:44:25.171Z,98.80
2018-06-24T12:46:57.802Z,99.60
2018-06-24T12:49:32.054Z,99.90
2018-06-24T12:52:04.669Z,99.90
2018-06-24T12:54:37.145Z,99.90
2018-06-24T12:57:09.622Z,99.90
2018-06-24T12:59:42.351Z,99.50
2018-06-24T13:02:14.735Z,99.30
2018-06-24T13:04:47.206Z,98.80
2018-06-24T13:07:21.045Z,99.00
2018-06-24T13:09:53.538Z,98.50
2018-06-24T13:12:26.094Z,98.30
2018-06-24T13:14:58.590Z,98.30
2018-06-24T13:17:31.062Z,98.40
2018-06-24T13:20:03.986Z,98.50
2018-06-24T13:22:36.431Z,98.50
2018-06-24T13:25:09.086Z,98.20
2018-06-24T13:27:41.598Z,98.40
2018-06-24T13:30:14.185Z,98.50
2018-06-24T13:32:46.622Z,98.50
2018-06-24T13:35:19.118Z,98.30
2018-06-24T13:37:51.610Z,97.30
2018-06-24T13:40:24.152Z,97.70
2018-06-24T13:42:57.356Z,97.60
2018-06-24T13:45:29.961Z,97.80
2018-06-24T13:48:05.100Z,97.30
2018-06-24T13:50:37.649Z,97.70
2018-06-24T13:53:10.261Z,97.70
2018-06-24T13:55:44.668Z,97.60
2018-06-24T14:00:50.058Z,97.70
2018-06-24T14:05:54.995Z,97.70
2018-06-24T14:08:27.853Z,97.30
2018-06-24T14:11:00.301Z,97.40
2018-06-24T14:13:32.804Z,97.30
2018-06-24T14:16:05.523Z,97.80
2018-06-24T14:18:38.176Z,97.30
2018-06-24T14:21:10.728Z,97.60
2018-06-24T14:23:43.516Z,97.40
2018-06-24T14:26:15.984Z,97.50
2018-06-24T14:28:48.817Z,97.00
2018-06-24T14:33:54.457Z,97.10
2018-06-24T14:36:29.021Z,97.30
2018-06-24T14:39:01.593Z,96.90
2018-06-24T14:41:34.330Z,96.90
2018-06-24T14:44:07.130Z,96.70
2018-06-24T14:51:44.783Z,96.60
2018-06-24T14:54:17.420Z,96.50
2018-06-24T14:56:51.022Z,96.50
2018-06-24T14:59:23.689Z,96.50
2018-06-24T15:01:56.650Z,96.70
2018-06-24T15:04:29.392Z,95.90
2018-06-24T15:07:02.049Z,96.10
2018-06-24T15:09:34.830Z,95.70
2018-06-24T15:12:07.616Z,95.70
2018-06-24T15:14:40.319Z,96.40
2018-06-24T15:17:12.974Z,96.20
2018-06-24T15:19:45.498Z,96.00
2018-06-24T15:22:18.199Z,96.10
2018-06-24T15:24:50.991Z,95.90
2018-06-24T15:27:23.667Z,96.20
2018-06-24T15:29:56.245Z,96.20
2018-06-24T15:32:28.775Z,96.10
2018-06-24T15:35:01.569Z,95.90
2018-06-24T15:37:34.213Z,96.00
2018-06-24T15:40:07.176Z,96.30
2018-06-24T15:42:39.854Z,96.40
2018-06-24T15:45:12.662Z,96.40
2018-06-24T15:47:45.287Z,96.40
2018-06-24T15:50:43.785Z,96.20
2018-06-24T15:53:16.474Z,96.20
2018-06-24T15:55:48.996Z,96.40
2018-06-24T15:58:22.505Z,96.70
2018-06-24T16:00:55.203Z,97.10
2018-06-24T16:03:27.966Z,97.60
2018-06-24T16:06:00.697Z,98.00
2018-06-24T16:08:33.409Z,98.30
2018-06-24T16:11:06.218Z,98.60
2018-06-24T16:13:38.939Z,98.60
2018-06-24T16:16:11.561Z,98.70
2018-06-24T16:18:44.101Z,99.10
2018-06-24T16:21:17.008Z,99.50
2018-06-24T16:23:49.318Z,99.90
2018-06-24T16:26:21.794Z,99.90
2018-06-24T16:28:54.474Z,99.90
2018-06-24T16:31:27.311Z,99.90
2018-06-24T16:34:00.308Z,99.90
2018-06-24T16:36:32.968Z,99.90
2018-06-24T16:39:08.113Z,99.90
2018-06-24T16:41:41.037Z,99.90
2018-06-24T16:44:13.686Z,99.90
2018-06-24T16:46:46.348Z,99.90
2018-06-24T16:49:19.195Z,99.90
2018-06-24T16:51:52.104Z,99.90
2018-06-24T16:54:24.756Z,99.90
2018-06-24T16:56:58.494Z,99.90
2018-06-24T16:59:31.050Z,99.90
2018-06-24T17:02:04.026Z,99.90
2018-06-24T17:04:36.884Z,99.90
2018-06-24T17:07:09.618Z,99.90
2018-06-24T17:09:42.610Z,99.90
2018-06-24T17:12:16.334Z,99.90
2018-06-24T17:14:49.616Z,99.90
2018-06-24T17:17:23.372Z,99.90
2018-06-24T17:19:56.413Z,99.90
2018-06-24T17:22:29.142Z,99.90
2018-06-24T17:27:34.316Z,99.90
2018-06-24T17:30:07.169Z,99.90
2018-06-24T17:32:40.815Z,99.90
2018-06-24T17:35:13.534Z,99.90
2018-06-24T17:37:46.110Z,99.90
2018-06-24T17:40:18.785Z,99.90
2018-06-24T17:42:51.718Z,99.90
2018-06-24T17:45:24.505Z,99.90
2018-06-24T17:47:57.167Z,99.90
2018-06-24T17:50:29.968Z,99.90
2018-06-24T17:53:02.506Z,99.90
2018-06-24T17:55:36.239Z,99.90
2018-06-24T17:58:08.779Z,99.90
2018-06-24T18:00:41.443Z,99.90
2018-06-24T18:03:14.030Z,99.90
2018-06-24T18:05:46.570Z,99.90
2018-06-24T18:08:19.266Z,99.90
2018-06-24T18:10:52.230Z,99.90
2018-06-24T18:13:32.857Z,99.90
2018-06-24T18:16:08.743Z,99.90
2018-06-24T18:18:41.620Z,99.90
2018-06-24T18:21:14.313Z,99.90
2018-06-24T18:23:46.831Z,99.90
2018-06-24T18:26:25.911Z,99.90
2018-06-24T18:28:58.453Z,99.90
2018-06-24T18:31:31.062Z,99.90
2018-06-24T18:34:03.978Z,99.90
2018-06-24T18:36:36.540Z,99.90
2018-06-24T18:39:09.608Z,99.90
2018-06-24T18:41:42.119Z,99.90
2018-06-24T18:44:14.596Z,99.90
2018-06-24T18:46:47.095Z,99.90
2018-06-24T18:49:19.716Z,99.90
2018-06-24T18:51:52.346Z,99.90
2018-06-24T18:54:27.998Z,99.90
2018-06-24T18:57:01.574Z,99.90
2018-06-24T18:59:34.365Z,99.90
2018-06-24T19:02:07.120Z,99.90
2018-06-24T19:04:39.671Z,99.90
2018-06-24T19:07:14.317Z,99.90
2018-06-24T19:12:20.936Z,99.90
2018-06-24T19:14:56.178Z,99.90
2018-06-24T19:17:28.868Z,99.90
2018-06-24T19:20:01.674Z,99.90
2018-06-24T19:22:34.836Z,99.90
2018-06-24T19:25:07.551Z,99.90
2018-06-24T19:27:40.226Z,99.90
2018-06-24T19:30:12.866Z,99.90
2018-06-24T19:32:45.560Z,99.90
2018-06-24T19:35:18.457Z,99.90
2018-06-24T19:37:51.110Z,99.90
2018-06-24T19:40:23.744Z,99.90
2018-06-24T19:42:56.497Z,99.90
2018-06-24T19:45:29.039Z,99.90
2018-06-24T19:48:01.956Z,99.90
2018-06-24T19:50:35.006Z,99.90
2018-06-24T19:53:07.740Z,99.90
2018-06-24T19:55:40.844Z,99.90
2018-06-24T19:58:13.231Z,99.90
2018-06-24T20:00:45.682Z,99.90
2018-06-24T20:03:18.217Z,99.90
2018-06-24T20:05:50.652Z,99.90
2018-06-24T20:08:23.514Z,99.90
2018-06-24T20:10:56.120Z,99.90
2018-06-24T20:13:32.301Z,99.90
2018-06-24T20:16:05.094Z,99.90
2018-06-24T20:18:38.920Z,99.90
2018-06-24T20:21:15.673Z,99.90
2018-06-24T20:23:51.818Z,99.90
2018-06-24T20:26:25.091Z,99.90
2018-06-24T20:28:59.073Z,99.90
2018-06-24T20:31:31.630Z,99.90
2018-06-24T20:34:07.427Z,99.90
2018-06-24T20:36:41.560Z,99.90
2018-06-24T20:39:14.410Z,99.90
2018-06-24T20:41:50.686Z,99.90
2018-06-24T20:44:25.980Z,99.90
2018-06-24T20:49:31.446Z,99.90
2018-06-24T20:52:03.936Z,99.90
2018-06-24T20:54:36.495Z,99.90
2018-06-24T20:57:12.225Z,99.90
2018-06-24T20:59:44.758Z,99.90
2018-06-24T21:02:17.272Z,99.90
2018-06-24T21:04:49.804Z,99.90
2018-06-24T21:07:22.198Z,99.90
2018-06-24T21:09:54.617Z,99.90
2018-06-24T21:12:27.155Z,99.90
2018-06-24T21:14:59.746Z,99.90
2018-06-24T21:17:32.281Z,99.90
2018-06-24T21:20:04.895Z,99.90
2018-06-24T21:22:37.427Z,99.90
2018-06-24T21:25:10.117Z,99.90
2018-06-24T21:27:42.529Z,99.90
2018-06-24T21:30:15.061Z,99.90
2018-06-24T21:32:47.989Z,99.90
2018-06-24T21:35:20.744Z,99.90
2018-06-24T21:37:53.558Z,99.90
2018-06-24T21:40:26.314Z,99.90
2018-06-24T21:42:58.907Z,99.90
2018-06-24T21:45:31.502Z,99.90
2018-06-24T21:48:04.959Z,99.90
2018-06-24T21:50:37.607Z,99.90
2018-06-24T21:53:10.189Z,99.90
2018-06-24T21:55:42.734Z,99.90
2018-06-24T21:58:15.202Z,99.90
2018-06-24T22:00:47.861Z,99.90
2018-06-24T22:03:20.294Z,99.90
2018-06-24T22:05:52.795Z,99.90
2018-06-24T22:08:25.402Z,99.90
2018-06-24T22:10:57.901Z,99.90
2018-06-24T22:13:30.596Z,99.90
2018-06-24T22:16:03.136Z,99.90
2018-06-24T22:18:35.748Z,99.90
2018-06-24T22:21:08.150Z,99.90
2018-06-24T22:23:40.637Z,99.90
2018-06-24T22:26:13.141Z,99.90
2018-06-24T22:28:45.690Z,99.90
2018-06-24T22:33:50.690Z,99.90
2018-06-24T22:36:23.170Z,99.90
2018-06-24T22:38:55.565Z,99.90
2018-06-24T22:41:27.986Z,99.90
2018-06-24T22:44:00.425Z,99.90
2018-06-24T22:46:33.963Z,99.90
2018-06-24T22:49:06.981Z,99.90
2018-06-24T22:51:39.599Z,99.90
2018-06-24T22:54:12.072Z,99.90
2018-06-24T22:56:44.746Z,99.90
2018-06-24T22:59:28.795Z,99.90
2018-06-24T23:02:01.229Z,99.90
2018-06-24T23:04:33.674Z,99.90
2018-06-24T23:07:06.153Z,99.90
2018-06-24T23:09:38.912Z,99.90
2018-06-24T23:12:11.418Z,99.90
2018-06-24T23:14:43.869Z,99.90
2018-06-24T23:17:16.331Z,99.90
2018-06-24T23:19:48.779Z,99.90
2018-06-24T23:22:21.465Z,99.90
2018-06-24T23:24:53.929Z,99.90
2018-06-24T23:27:27.287Z,99.90
2018-06-24T23:29:59.789Z,99.90
2018-06-24T23:35:05.412Z,99.90
2018-06-24T23:37:37.907Z,99.90
2018-06-24T23:40:10.518Z,99.90
2018-06-24T23:42:43.120Z,99.90
2018-06-24T23:45:15.641Z,99.90
2018-06-24T23:47:48.251Z,99.90
2018-06-24T23:50:20.790Z,99.90
2018-06-24T23:52:53.431Z,99.90
2018-06-24T23:55:25.869Z,99.90
2018-06-24T23:57:58.717Z,99.90
